createdAt,value
2022-09-21T00:00:16.978Z,5.72
2022-09-21T00:06:19.791Z,5.93
2022-09-21T00:12:22.118Z,5.70
2022-09-21T00:18:24.265Z,8.07
2022-09-21T00:24:25.882Z,7.47
2022-09-21T00:30:27.252Z,7.82
2022-09-21T00:36:29.455Z,8.18
2022-09-21T00:42:32.397Z,6.60
2022-09-21T00:48:33.967Z,6.18
2022-09-21T00:54:39.338Z,7.57
2022-09-21T01:00:40.898Z,8.35
2022-09-21T01:06:42.667Z,7.45
2022-09-21T01:12:58.260Z,8.17
2022-09-21T01:19:15.996Z,7.80
2022-09-21T01:25:38.702Z,6.47
2022-09-21T01:31:44.233Z,7.13
2022-09-21T01:37:48.446Z,12.57
2022-09-21T01:43:52.664Z,6.33
2022-09-21T01:49:55.931Z,6.95
2022-09-21T01:56:10.183Z,9.30
2022-09-21T02:02:14.778Z,6.95
2022-09-21T02:08:18.222Z,6.88
2022-09-21T02:14:21.343Z,8.40
2022-09-21T02:20:32.059Z,7.72
2022-09-21T02:26:35.414Z,9.33
2022-09-21T02:32:49.211Z,8.98
2022-09-21T02:38:56.842Z,7.38
2022-09-21T02:45:17.006Z,6.53
2022-09-21T02:51:21.882Z,6.82
2022-09-21T02:57:23.751Z,7.33
2022-09-21T03:03:26.447Z,7.80
2022-09-21T03:09:27.911Z,11.65
2022-09-21T03:15:29.305Z,10.13
2022-09-21T03:21:32.236Z,8.00
2022-09-21T03:27:34.419Z,9.93
2022-09-21T03:33:35.788Z,8.15
2022-09-21T03:39:37.307Z,7.32
2022-09-21T03:45:42.159Z,8.73
2022-09-21T03:51:43.648Z,11.20
2022-09-21T03:57:45.186Z,8.57
2022-09-21T04:03:46.578Z,8.15
2022-09-21T04:09:47.962Z,8.88
2022-09-21T04:15:50.392Z,9.10
2022-09-21T04:21:52.142Z,9.90
2022-09-21T04:27:53.554Z,8.90
2022-09-21T04:33:57.066Z,8.70
2022-09-21T04:39:58.580Z,10.50
2022-09-21T04:46:04.424Z,9.00
2022-09-21T04:52:08.229Z,8.05
2022-09-21T04:58:09.623Z,9.97
2022-09-21T05:04:11.063Z,9.60
2022-09-21T05:10:12.561Z,8.93
2022-09-21T05:16:14.606Z,8.97
2022-09-21T05:22:16.371Z,9.68
2022-09-21T05:28:18.459Z,9.87
2022-09-21T05:34:38.687Z,8.35
2022-09-21T05:40:40.302Z,9.70
2022-09-21T05:46:52.699Z,9.57
2022-09-21T05:53:06.466Z,12.35
2022-09-21T05:59:26.518Z,15.43
2022-09-21T06:05:27.987Z,11.00
2022-09-21T06:11:29.404Z,12.85
2022-09-21T06:17:32.104Z,10.30
2022-09-21T06:23:33.683Z,9.38
2022-09-21T06:29:37.680Z,13.53
2022-09-21T06:35:40.297Z,9.88
2022-09-21T06:41:41.729Z,10.85
2022-09-21T06:47:48.196Z,9.57
2022-09-21T06:53:53.995Z,9.85
2022-09-21T06:59:55.415Z,8.80
2022-09-21T07:05:56.820Z,13.15
2022-09-21T07:11:58.187Z,11.30
2022-09-21T07:18:06.670Z,10.70
2022-09-21T07:24:12.181Z,12.95
2022-09-21T07:30:14.084Z,11.30
2022-09-21T07:36:17.658Z,13.48
2022-09-21T07:42:20.154Z,11.40
2022-09-21T07:48:22.510Z,12.07
2022-09-21T07:54:23.891Z,10.32
2022-09-21T08:00:25.419Z,9.33
2022-09-21T08:06:27.922Z,11.63
2022-09-21T08:12:29.295Z,12.80
2022-09-21T08:18:31.835Z,8.57
2022-09-21T08:24:33.698Z,10.20
2022-09-21T08:30:35.058Z,10.77
2022-09-21T08:36:36.457Z,10.45
2022-09-21T08:42:47.523Z,9.10
2022-09-21T08:48:58.463Z,8.57
2022-09-21T08:55:01.623Z,8.82
2022-09-21T09:01:15.068Z,11.87
2022-09-21T09:07:33.591Z,10.05
2022-09-21T09:13:43.269Z,8.65
2022-09-21T09:19:50.487Z,9.07
2022-09-21T09:25:54.027Z,7.97
2022-09-21T09:31:59.140Z,9.80
2022-09-21T09:38:19.141Z,8.45
2022-09-21T09:44:33.506Z,8.55
2022-09-21T09:50:36.062Z,9.93
2022-09-21T09:56:37.432Z,7.68
2022-09-21T10:02:49.805Z,8.97
2022-09-21T10:08:53.178Z,6.25
2022-09-21T10:14:56.157Z,6.05
2022-09-21T10:20:59.948Z,10.77
2022-09-21T10:27:06.379Z,7.28
2022-09-21T10:33:19.162Z,8.10
2022-09-21T10:39:23.415Z,5.32
2022-09-21T10:45:28.927Z,3.70
2022-09-21T10:51:31.021Z,3.47
2022-09-21T10:57:33.258Z,4.00
2022-09-21T11:03:53.553Z,5.40
2022-09-21T11:10:10.251Z,4.55
2022-09-21T11:16:11.676Z,5.05
2022-09-21T11:22:32.616Z,4.63
2022-09-21T11:28:40.796Z,4.15
2022-09-21T11:34:56.998Z,8.60
2022-09-21T11:41:31.901Z,3.53
2022-09-21T11:47:46.550Z,8.48
2022-09-21T11:53:48.710Z,3.10
2022-09-21T12:00:05.857Z,5.43
2022-09-21T12:06:13.330Z,3.00
2022-09-21T12:12:35.069Z,4.28
2022-09-21T12:19:00.292Z,2.80
2022-09-21T12:25:21.816Z,3.07
2022-09-21T12:31:26.238Z,3.50
2022-09-21T12:37:46.366Z,3.40
2022-09-21T12:44:00.619Z,4.80
2022-09-21T12:50:07.975Z,4.20
2022-09-21T12:56:15.571Z,3.00
2022-09-21T13:02:20.300Z,3.40
2022-09-21T13:08:27.703Z,3.10
2022-09-21T13:14:34.709Z,3.65
2022-09-21T13:20:38.227Z,3.72
2022-09-21T13:26:44.291Z,2.30
2022-09-21T13:32:51.774Z,5.07
2022-09-21T13:38:57.594Z,6.80
2022-09-21T13:45:24.074Z,3.00
2022-09-21T13:51:25.632Z,4.85
2022-09-21T13:57:34.904Z,2.90
2022-09-21T14:03:38.186Z,2.90
2022-09-21T14:10:02.626Z,3.30
2022-09-21T14:16:24.103Z,2.60
2022-09-21T14:22:26.580Z,2.50
2022-09-21T14:28:31.371Z,2.73
2022-09-21T14:34:36.875Z,3.10
2022-09-21T14:40:45.189Z,2.80
2022-09-21T14:46:46.756Z,3.42
2022-09-21T14:52:58.007Z,4.05
2022-09-21T14:59:13.311Z,3.47
2022-09-21T15:05:19.433Z,3.72
2022-09-21T15:11:24.694Z,2.97
2022-09-21T15:17:27.927Z,2.67
2022-09-21T15:23:39.007Z,2.58
2022-09-21T15:29:42.952Z,3.40
2022-09-21T15:35:46.461Z,3.90
2022-09-21T15:41:49.336Z,3.50
2022-09-21T15:47:51.829Z,3.58
2022-09-21T15:53:57.486Z,3.55
2022-09-21T16:00:03.387Z,2.83
2022-09-21T16:06:21.302Z,3.80
2022-09-21T16:12:25.459Z,4.17
2022-09-21T16:18:39.831Z,3.38
2022-09-21T16:24:45.040Z,3.90
2022-09-21T16:30:46.818Z,3.57
2022-09-21T16:36:49.334Z,3.08
2022-09-21T16:42:50.907Z,3.77
2022-09-21T16:48:55.551Z,3.60
2022-09-21T16:54:58.516Z,4.18
2022-09-21T17:01:01.124Z,4.90
2022-09-21T17:07:04.993Z,4.35
2022-09-21T17:13:08.682Z,4.87
2022-09-21T17:19:10.372Z,4.28
2022-09-21T17:25:11.832Z,5.25
2022-09-21T17:31:14.089Z,4.93
2022-09-21T17:37:15.799Z,6.28
2022-09-21T17:43:33.305Z,4.97
2022-09-21T17:49:34.806Z,6.07
2022-09-21T17:55:37.406Z,6.85
2022-09-21T18:01:42.043Z,5.77
2022-09-21T18:07:43.607Z,6.68
2022-09-21T18:14:01.054Z,6.67
2022-09-21T18:20:05.464Z,7.97
2022-09-21T18:26:13.382Z,11.90
2022-09-21T18:32:27.057Z,8.87
2022-09-21T18:38:34.948Z,8.00
2022-09-21T18:44:36.329Z,7.57
2022-09-21T18:51:03.592Z,8.73
2022-09-21T18:57:10.527Z,9.07
2022-09-21T19:03:19.109Z,9.03
2022-09-21T19:09:40.468Z,11.48
2022-09-21T19:16:01.370Z,11.90
2022-09-21T19:22:12.334Z,15.20
2022-09-21T19:28:32.479Z,14.13
2022-09-21T19:34:33.989Z,14.77
2022-09-21T19:40:37.628Z,14.43
2022-09-21T19:47:00.308Z,11.83
2022-09-21T19:53:20.682Z,15.18
2022-09-21T19:59:41.044Z,12.02
2022-09-21T20:05:48.625Z,14.30
2022-09-21T20:11:56.327Z,11.15
2022-09-21T20:18:11.492Z,13.10
2022-09-21T20:24:19.107Z,12.07
2022-09-21T20:30:22.133Z,14.52
2022-09-21T20:36:23.523Z,13.77
2022-09-21T20:42:25.032Z,13.82
2022-09-21T20:48:26.415Z,12.93
2022-09-21T20:54:27.900Z,12.15
2022-09-21T21:00:29.397Z,13.23
2022-09-21T21:06:31.207Z,13.17
2022-09-21T21:12:32.635Z,13.82
2022-09-21T21:18:33.998Z,14.37
2022-09-21T21:24:41.552Z,14.93
2022-09-21T21:30:43.942Z,15.75
2022-09-21T21:36:45.426Z,12.77
2022-09-21T21:42:47.098Z,13.80
2022-09-21T21:48:48.520Z,13.90
2022-09-21T21:54:50.095Z,15.15
2022-09-21T22:00:51.591Z,15.27
2022-09-21T22:06:53.066Z,16.57
2022-09-21T22:12:57.632Z,16.55
2022-09-21T22:19:01.508Z,17.33
2022-09-21T22:25:03.027Z,18.30
2022-09-21T22:31:08.465Z,19.33
2022-09-21T22:37:09.875Z,17.40
2022-09-21T22:43:11.254Z,20.65
2022-09-21T22:49:12.648Z,19.53
2022-09-21T22:55:14.043Z,14.25
2022-09-21T23:01:18.121Z,16.52
2022-09-21T23:07:19.599Z,15.47
2022-09-21T23:13:21.036Z,16.50
2022-09-21T23:19:22.449Z,14.03
2022-09-21T23:25:23.830Z,14.52
2022-09-21T23:31:28.301Z,13.38
2022-09-21T23:37:29.750Z,16.17
2022-09-21T23:43:31.451Z,13.73
2022-09-21T23:49:32.921Z,13.47
2022-09-21T23:55:34.314Z,14.75
